Time;durP1;ratioP1;P1;durP2;ratioP2;P2;SDS_P1;SDS_P2;PMS_P1;PMS_P2;Temp;Humidity;BMP_temperature;BMP_pressure;BME280_temperature;BME280_humidity;BME280_pressure;Samples;Min_cycle;Max_cycle;Signal;HPM_P1;HPM_P2
2023/06/29 00:01:03;;;;;;;3.67;1.73;;;18.60;99.90;;;;;;5050877;28;20252;-77
2023/06/29 00:03:32;;;;;;;5.65;2.20;;;18.50;99.90;;;;;;5051315;28;20671;-78
2023/06/29 00:05:59;;;;;;;4.03;1.83;;;18.50;99.90;;;;;;5051061;28;20173;-77
2023/06/29 00:08:26;;;;;;;4.78;1.30;;;18.60;99.90;;;;;;5050937;28;20212;-77
2023/06/29 00:10:53;;;;;;;2.63;1.10;;;16.80;99.90;;;;;;5051113;28;20165;-77
2023/06/29 00:13:19;;;;;;;2.28;0.80;;;18.40;99.90;;;;;;5051152;28;20674;-76
2023/06/29 00:15:46;;;;;;;1.85;0.90;;;18.40;99.90;;;;;;5048598;28;20187;-78
2023/06/29 00:18:13;;;;;;;2.53;0.75;;;19.20;99.90;;;;;;5030893;28;20645;-74
2023/06/29 00:20:40;;;;;;;1.58;0.77;;;18.20;99.90;;;;;;5031129;28;20670;-75
2023/06/29 00:23:05;;;;;;;1.08;0.68;;;18.20;99.90;;;;;;5031071;28;20583;-76
2023/06/29 00:25:32;;;;;;;1.45;0.70;;;18.20;99.90;;;;;;5041321;28;20174;-76
2023/06/29 00:27:58;;;;;;;2.25;0.98;;;18.10;99.90;;;;;;5014072;28;20205;-75
2023/06/29 00:30:23;;;;;;;3.05;1.00;;;18.00;99.90;;;;;;5036315;28;20169;-75
2023/06/29 00:32:49;;;;;;;2.97;1.00;;;18.00;99.90;;;;;;5050838;28;20197;-75
2023/06/29 00:35:15;;;;;;;3.83;1.17;;;18.00;99.90;;;;;;5050742;28;20640;-74
2023/06/29 00:37:42;;;;;;;2.60;1.20;;;18.00;99.90;;;;;;5050863;28;20172;-74
2023/06/29 00:40:09;;;;;;;2.63;1.20;;;18.00;99.90;;;;;;5051603;28;20178;-74
2023/06/29 00:42:35;;;;;;;3.20;1.20;;;18.00;99.90;;;;;;5051498;28;20173;-75
2023/06/29 00:45:02;;;;;;;4.25;1.55;;;17.90;99.90;;;;;;5051174;28;20170;-75
2023/06/29 00:47:28;;;;;;;3.53;1.40;;;18.00;99.90;;;;;;5051045;28;20169;-76
2023/06/29 00:49:55;;;;;;;1.92;1.30;;;17.90;99.90;;;;;;5054902;28;20176;-76
2023/06/29 00:52:21;;;;;;;2.67;1.50;;;17.80;99.90;;;;;;5036738;28;20168;-76
2023/06/29 00:54:47;;;;;;;2.90;1.48;;;17.70;99.90;;;;;;5037031;28;20272;-76
2023/06/29 00:57:13;;;;;;;2.63;1.42;;;17.60;99.90;;;;;;5054432;28;20166;-77
2023/06/29 00:59:39;;;;;;;3.65;1.35;;;17.50;99.90;;;;;;5054138;28;20260;-76
2023/06/29 01:02:08;;;;;;;2.47;1.42;;;17.40;99.90;;;;;;5054278;28;20264;-77
2023/06/29 01:04:35;;;;;;;4.68;1.52;;;17.30;99.90;;;;;;5054409;28;20173;-76
2023/06/29 01:07:17;;;;;;;3.40;1.58;;;17.30;99.90;;;;;;5054014;28;20177;-74
2023/06/29 01:09:46;;;;;;;3.58;1.50;;;17.20;99.90;;;;;;5053791;28;20185;-75
2023/06/29 01:12:13;;;;;;;1.83;1.40;;;17.10;99.90;;;;;;5053827;28;20687;-75
2023/06/29 01:14:41;;;;;;;4.38;1.77;;;17.00;99.90;;;;;;5054160;28;20173;-82
2023/06/29 01:17:13;;;;;;;5.60;1.63;;;17.00;99.90;;;;;;5053950;28;20280;-81
2023/06/29 01:19:43;;;;;;;3.10;1.50;;;16.90;99.90;;;;;;5053843;28;20169;-80
2023/06/29 01:22:19;;;;;;;5.65;1.67;;;16.90;99.90;;;;;;5053919;28;20199;-82
2023/06/29 01:24:45;;;;;;;4.40;1.60;;;16.90;99.90;;;;;;5053798;28;20635;-83
2023/06/29 01:27:14;;;;;;;2.92;1.50;;;16.90;99.90;;;;;;5054087;28;20532;-81
2023/06/29 01:29:40;;;;;;;2.97;1.27;;;16.80;99.90;;;;;;5053660;28;20228;-82
2023/06/29 01:32:07;;;;;;;2.22;1.40;;;16.80;99.90;;;;;;5053338;28;20200;-80
2023/06/29 01:34:35;;;;;;;2.05;1.20;;;16.80;99.90;;;;;;5042103;28;20636;-81
2023/06/29 01:37:14;;;;;;;4.40;1.65;;;16.90;99.90;;;;;;5049606;28;20671;-81
2023/06/29 01:39:50;;;;;;;2.33;1.67;;;16.80;99.90;;;;;;5053055;28;20353;-82
2023/06/29 01:42:17;;;;;;;3.03;1.40;;;16.80;99.90;;;;;;5053759;28;20176;-82
2023/06/29 01:44:43;;;;;;;3.78;1.42;;;16.80;99.90;;;;;;5053000;28;20177;-84
2023/06/29 01:47:09;;;;;;;2.20;1.33;;;16.70;99.90;;;;;;5053507;28;20177;-82
2023/06/29 01:49:36;;;;;;;2.92;1.55;;;16.70;99.90;;;;;;5053535;28;20233;-83
2023/06/29 01:52:04;;;;;;;2.72;1.40;;;16.70;99.90;;;;;;5053839;28;20602;-83
2023/06/29 01:54:30;;;;;;;2.95;1.38;;;16.70;99.90;;;;;;5053985;28;20199;-82
2023/06/29 01:56:55;;;;;;;2.10;1.50;;;16.70;99.90;;;;;;5053626;28;20671;-83
2023/06/29 01:59:21;;;;;;;3.13;1.35;;;16.80;99.90;;;;;;5052409;28;20165;-82
2023/06/29 02:01:47;;;;;;;2.10;1.25;;;16.80;99.90;;;;;;5053367;28;20232;-78
2023/06/29 02:04:13;;;;;;;4.70;1.30;;;16.70;99.90;;;;;;5053351;28;20577;-77
2023/06/29 02:06:38;;;;;;;3.45;1.50;;;16.60;99.90;;;;;;5053112;28;20181;-69
2023/06/29 02:09:04;;;;;;;6.47;1.52;;;16.70;99.90;;;;;;5052790;28;20247;-69
2023/06/29 02:11:29;;;;;;;3.83;1.10;;;16.60;99.90;;;;;;5052898;28;20195;-68
2023/06/29 02:13:55;;;;;;;3.60;1.05;;;16.70;99.90;;;;;;5052810;28;20173;-69
2023/06/29 02:16:21;;;;;;;3.85;1.20;;;16.70;99.90;;;;;;5052762;28;20655;-69
2023/06/29 02:18:46;;;;;;;3.78;1.02;;;16.60;99.90;;;;;;5034743;28;20188;-69
2023/06/29 02:21:13;;;;;;;2.38;1.20;;;16.70;99.90;;;;;;5052674;28;20165;-69
2023/06/29 02:23:39;;;;;;;4.22;1.40;;;16.70;99.90;;;;;;5052502;28;20551;-69
2023/06/29 02:26:04;;;;;;;2.60;1.10;;;16.60;99.90;;;;;;5052761;28;20173;-69
2023/06/29 02:28:30;;;;;;;1.65;1.00;;;16.60;99.90;;;;;;5052328;28;20713;-70
2023/06/29 02:30:56;;;;;;;3.88;1.30;;;16.70;99.90;;;;;;5052574;28;20663;-70
2023/06/29 02:33:21;;;;;;;3.63;1.20;;;16.60;99.90;;;;;;5052449;28;20602;-71
2023/06/29 02:35:47;;;;;;;2.00;1.35;;;16.60;99.90;;;;;;5052439;28;20256;-69
2023/06/29 02:38:12;;;;;;;3.50;1.17;;;16.60;99.90;;;;;;5052312;28;20174;-69
2023/06/29 02:40:38;;;;;;;1.85;1.15;;;16.70;99.90;;;;;;5052223;28;20628;-70
2023/06/29 02:43:03;;;;;;;2.08;1.17;;;16.70;99.90;;;;;;5037980;28;20178;-69
2023/06/29 02:45:29;;;;;;;2.63;1.00;;;16.60;99.90;;;;;;5051906;28;20183;-70
2023/06/29 02:47:55;;;;;;;2.53;1.33;;;16.60;99.90;;;;;;5051509;28;20558;-70
2023/06/29 02:50:20;;;;;;;1.65;1.00;;;16.60;99.90;;;;;;5051680;28;20256;-70
2023/06/29 02:52:46;;;;;;;2.35;1.15;;;16.60;99.90;;;;;;5043708;28;20172;-71
2023/06/29 02:55:11;;;;;;;2.22;1.42;;;16.60;99.90;;;;;;5051713;28;20315;-70
2023/06/29 02:57:37;;;;;;;2.50;1.20;;;16.50;99.90;;;;;;5051762;28;20230;-70
2023/06/29 03:00:03;;;;;;;1.75;1.10;;;16.50;99.90;;;;;;5051835;28;20218;-69
2023/06/29 03:02:29;;;;;;;2.60;1.00;;;16.50;99.90;;;;;;5051280;28;20279;-69
2023/06/29 03:04:55;;;;;;;3.78;1.20;;;16.40;99.90;;;;;;5044918;28;20662;-69
2023/06/29 03:07:20;;;;;;;7.28;1.30;;;16.30;99.90;;;;;;5033148;28;20280;-68
2023/06/29 03:09:46;;;;;;;3.03;1.50;;;16.30;99.90;;;;;;5051551;28;20209;-68
2023/06/29 03:12:12;;;;;;;2.33;1.30;;;16.50;99.90;;;;;;5051330;28;20299;-67
2023/06/29 03:14:37;;;;;;;2.25;1.13;;;16.30;99.90;;;;;;5051617;28;20192;-68
2023/06/29 03:17:03;;;;;;;6.72;1.10;;;16.20;99.90;;;;;;5033110;28;20178;-66
2023/06/29 03:19:29;;;;;;;2.25;1.00;;;16.20;99.90;;;;;;5045211;28;20181;-67
2023/06/29 03:21:55;;;;;;;1.88;1.10;;;;;;;;;;5051480;28;20180;-67
2023/06/29 03:24:20;;;;;;;1.70;1.00;;;16.10;99.90;;;;;;5038845;28;20671;-67
2023/06/29 03:26:46;;;;;;;2.97;1.30;;;16.10;99.90;;;;;;5046452;28;20173;-68
2023/06/29 03:29:11;;;;;;;1.30;1.15;;;16.10;99.90;;;;;;5050597;28;20695;-68
2023/06/29 03:31:37;;;;;;;2.17;1.40;;;16.00;99.90;;;;;;5050130;28;20185;-67
2023/06/29 03:34:03;;;;;;;3.47;1.20;;;15.90;99.90;;;;;;5051115;28;20541;-67
2023/06/29 03:36:28;;;;;;;1.88;1.08;;;16.00;99.90;;;;;;5048754;28;20685;-68
2023/06/29 03:38:54;;;;;;;2.67;1.17;;;15.90;99.90;;;;;;5050799;28;20177;-68
2023/06/29 03:41:19;;;;;;;2.53;1.42;;;15.90;99.90;;;;;;5050676;28;20196;-68
2023/06/29 03:43:45;;;;;;;3.00;1.27;;;15.80;99.90;;;;;;5051114;28;20165;-68
2023/06/29 03:46:10;;;;;;;1.95;0.98;;;15.70;99.90;;;;;;5033118;28;20173;-68
2023/06/29 03:48:36;;;;;;;3.17;1.40;;;15.80;99.90;;;;;;5050992;28;20752;-68
2023/06/29 03:51:02;;;;;;;6.40;1.50;;;15.70;99.90;;;;;;5050752;28;20652;-68
2023/06/29 03:53:28;;;;;;;2.17;1.08;;;15.60;99.90;;;;;;5042289;28;20288;-67
2023/06/29 03:55:53;;;;;;;2.67;1.05;;;15.60;99.90;;;;;;5043091;28;20200;-68
2023/06/29 03:58:19;;;;;;;4.63;1.30;;;15.40;99.90;;;;;;5035408;28;20188;-68
2023/06/29 04:00:44;;;;;;;2.95;1.10;;;15.40;99.90;;;;;;5044376;28;20184;-67
2023/06/29 04:03:11;;;;;;;2.67;1.00;;;;;;;;;;5050731;28;20170;-68
2023/06/29 04:05:36;;;;;;;4.90;1.00;;;15.20;99.90;;;;;;5050964;28;20165;-68
2023/06/29 04:08:04;;;;;;;2.85;1.20;;;15.10;99.90;;;;;;5050706;28;20213;-68
2023/06/29 04:10:31;;;;;;;1.83;1.02;;;;;;;;;;5050709;28;20173;-69
2023/06/29 04:12:56;;;;;;;3.40;1.20;;;15.10;99.90;;;;;;5050643;28;20508;-69
2023/06/29 04:15:22;;;;;;;3.42;1.00;;;15.10;99.90;;;;;;5032852;28;20636;-68
2023/06/29 04:17:48;;;;;;;4.97;1.08;;;;;;;;;;5050616;28;20172;-68
2023/06/29 04:20:13;;;;;;;1.48;0.85;;;15.00;99.90;;;;;;5050693;28;20699;-68
2023/06/29 04:22:39;;;;;;;3.35;0.98;;;14.90;99.90;;;;;;5051621;28;20169;-68
2023/06/29 04:25:06;;;;;;;1.45;0.90;;;14.90;99.90;;;;;;5054868;28;20643;-67
2023/06/29 04:27:33;;;;;;;3.33;1.15;;;14.90;99.90;;;;;;5054764;28;20185;-69
2023/06/29 04:29:59;;;;;;;2.63;0.73;;;15.00;99.90;;;;;;5036694;28;20216;-68
2023/06/29 04:32:25;;;;;;;4.72;1.00;;;14.90;99.90;;;;;;5054728;28;20157;-69
2023/06/29 04:34:50;;;;;;;4.28;1.15;;;14.90;99.90;;;;;;5054687;28;20252;-69
2023/06/29 04:37:16;;;;;;;3.72;1.00;;;14.90;99.90;;;;;;5054703;28;20184;-70
2023/06/29 04:39:42;;;;;;;1.85;0.90;;;15.00;99.90;;;;;;5054514;28;20227;-70
2023/06/29 04:42:12;;;;;;;1.50;0.90;;;14.80;99.90;;;;;;5036842;28;20187;-71
2023/06/29 04:44:41;;;;;;;3.08;1.13;;;14.90;99.90;;;;;;5036424;28;20209;-71
2023/06/29 04:47:07;;;;;;;10.13;1.67;;;14.90;99.90;;;;;;5054615;28;20523;-72
2023/06/29 04:49:36;;;;;;;2.05;0.90;;;14.90;99.90;;;;;;5054275;28;20683;-71
2023/06/29 04:52:03;;;;;;;3.15;1.00;;;14.90;99.90;;;;;;5054398;28;20181;-72
2023/06/29 04:54:29;;;;;;;4.72;0.90;;;14.90;99.90;;;;;;5054222;28;20231;-72
2023/06/29 04:56:56;;;;;;;2.42;0.80;;;14.90;99.90;;;;;;5041370;28;20296;-71
2023/06/29 04:59:23;;;;;;;2.85;0.90;;;15.00;99.90;;;;;;5053554;28;20166;-71
2023/06/29 05:01:49;;;;;;;3.67;1.05;;;14.90;99.90;;;;;;5053011;28;20196;-72
2023/06/29 05:04:14;;;;;;;2.85;0.80;;;14.90;99.90;;;;;;5036476;28;20186;-72
2023/06/29 05:06:40;;;;;;;1.25;0.60;;;15.00;99.90;;;;;;5045577;28;20189;-70
2023/06/29 05:09:06;;;;;;;2.95;0.80;;;15.10;99.90;;;;;;5033925;28;20205;-67
2023/06/29 05:11:34;;;;;;;7.22;0.70;;;15.00;99.90;;;;;;5053053;28;20631;-68
2023/06/29 05:14:00;;;;;;;1.85;0.80;;;15.10;99.90;;;;;;5053767;28;20189;-69
2023/06/29 05:16:25;;;;;;;2.55;1.23;;;15.10;99.90;;;;;;5053390;28;20166;-68
2023/06/29 05:18:51;;;;;;;1.90;1.00;;;15.00;99.90;;;;;;5053407;28;20528;-69
2023/06/29 05:21:16;;;;;;;3.75;0.90;;;15.40;99.90;;;;;;5053614;28;20201;-73
2023/06/29 05:23:43;;;;;;;2.40;0.90;;;15.30;99.90;;;;;;5053821;28;20201;-68
2023/06/29 05:26:08;;;;;;;2.05;1.00;;;15.30;99.90;;;;;;5053649;28;20173;-69
2023/06/29 05:28:34;;;;;;;1.45;0.80;;;15.60;99.90;;;;;;5053487;28;20229;-68
2023/06/29 05:31:00;;;;;;;4.85;1.23;;;;;;;;;;5035602;28;20268;-68
2023/06/29 05:33:25;;;;;;;4.50;0.98;;;15.40;99.90;;;;;;5053538;28;20204;-68
2023/06/29 05:35:51;;;;;;;3.60;0.93;;;15.50;99.90;;;;;;5053398;28;20643;-69
2023/06/29 05:38:17;;;;;;;1.60;0.80;;;15.60;99.90;;;;;;5035518;28;20264;-69
2023/06/29 05:40:42;;;;;;;2.53;0.70;;;15.50;99.90;;;;;;5053502;28;20659;-68
2023/06/29 05:43:08;;;;;;;2.15;0.93;;;15.50;99.90;;;;;;5052466;28;20165;-69
2023/06/29 05:45:33;;;;;;;2.47;0.90;;;15.60;99.90;;;;;;5052458;28;20252;-68
2023/06/29 05:47:59;;;;;;;1.98;0.80;;;15.50;99.90;;;;;;5053076;28;20259;-68
2023/06/29 05:50:25;;;;;;;4.45;0.93;;;;;;;;;;5053290;28;20180;-68
2023/06/29 05:52:51;;;;;;;2.30;0.80;;;15.50;99.90;;;;;;5053330;28;20169;-69
2023/06/29 05:55:16;;;;;;;1.70;0.77;;;15.60;99.90;;;;;;5053084;28;20651;-70
2023/06/29 05:57:42;;;;;;;3.22;0.95;;;15.50;99.90;;;;;;5053121;28;20165;-69
2023/06/29 06:00:10;;;;;;;4.57;0.80;;;15.60;99.90;;;;;;5053172;28;20619;-69
2023/06/29 06:02:36;;;;;;;4.13;1.00;;;15.60;99.90;;;;;;5053148;28;20542;-71
2023/06/29 06:05:03;;;;;;;4.72;1.10;;;15.70;99.90;;;;;;5053182;28;20184;-69
2023/06/29 06:07:31;;;;;;;4.20;1.00;;;15.80;99.90;;;;;;5053035;28;20169;-66
2023/06/29 06:09:57;;;;;;;3.75;0.90;;;15.80;99.90;;;;;;5052987;28;20200;-71
2023/06/29 06:12:23;;;;;;;4.22;0.82;;;15.90;99.90;;;;;;5050598;28;20437;-69
2023/06/29 06:14:49;;;;;;;2.20;0.80;;;15.90;99.90;;;;;;5037583;28;20173;-69
2023/06/29 06:17:14;;;;;;;5.32;1.00;;;15.90;99.90;;;;;;5052147;28;20532;-70
2023/06/29 06:19:41;;;;;;;6.60;1.20;;;16.00;99.90;;;;;;5051595;28;20173;-68
2023/06/29 06:22:07;;;;;;;1.38;0.80;;;15.90;99.90;;;;;;5052522;28;20201;-68
2023/06/29 06:24:32;;;;;;;1.40;0.82;;;15.90;99.90;;;;;;5052395;28;20224;-69
2023/06/29 06:26:58;;;;;;;1.98;0.80;;;;;;;;;;5052258;28;20177;-70
2023/06/29 06:29:24;;;;;;;2.03;0.80;;;16.00;99.90;;;;;;5051763;28;20695;-69
2023/06/29 06:31:49;;;;;;;2.33;0.70;;;16.10;99.90;;;;;;5052165;28;20279;-66
2023/06/29 06:34:15;;;;;;;2.65;0.80;;;16.20;99.90;;;;;;5052362;28;20181;-68
2023/06/29 06:36:41;;;;;;;4.05;0.93;;;16.10;99.90;;;;;;5051676;28;20169;-69
2023/06/29 06:39:07;;;;;;;1.70;0.88;;;16.20;99.90;;;;;;5052400;28;20177;-70
2023/06/29 06:41:32;;;;;;;1.75;1.00;;;16.30;99.90;;;;;;5052247;28;20196;-68
2023/06/29 06:43:59;;;;;;;2.17;0.80;;;16.30;99.90;;;;;;5052225;28;20227;-67
2023/06/29 06:46:24;;;;;;;2.28;0.88;;;16.40;99.90;;;;;;5051240;28;20173;-68
2023/06/29 06:48:50;;;;;;;4.20;0.85;;;16.50;99.90;;;;;;5052148;28;20205;-69
2023/06/29 06:51:16;;;;;;;2.53;0.80;;;16.60;99.90;;;;;;5052016;28;20643;-69
2023/06/29 06:53:41;;;;;;;4.38;0.93;;;;;;;;;;5052060;28;20709;-67
2023/06/29 06:56:07;;;;;;;5.55;0.70;;;16.60;99.90;;;;;;5051990;28;20260;-67
2023/06/29 06:58:36;;;;;;;1.85;0.80;;;16.70;99.90;;;;;;5051500;28;20537;-69
2023/06/29 07:01:02;;;;;;;1.85;0.80;;;16.70;99.90;;;;;;5051273;28;20260;-66
2023/06/29 07:03:27;;;;;;;3.35;1.20;;;16.80;99.90;;;;;;5051725;28;20261;-65
2023/06/29 07:05:57;;;;;;;2.35;0.80;;;16.80;99.90;;;;;;5051518;28;20189;-71
2023/06/29 07:08:23;;;;;;;4.90;1.00;;;16.70;99.90;;;;;;5041525;28;20206;-71
2023/06/29 07:10:51;;;;;;;2.22;0.85;;;16.90;99.90;;;;;;5035358;28;20239;-71
2023/06/29 07:13:17;;;;;;;2.55;0.95;;;16.90;99.90;;;;;;5016007;28;20204;-72
2023/06/29 07:15:45;;;;;;;2.33;1.00;;;16.90;99.90;;;;;;5050162;28;20235;-71
2023/06/29 07:18:10;;;;;;;2.33;0.98;;;17.00;99.90;;;;;;5051056;28;20181;-75
2023/06/29 07:20:36;;;;;;;4.28;0.80;;;17.10;99.90;;;;;;5050964;28;20177;-73
2023/06/29 07:23:02;;;;;;;2.42;0.80;;;17.00;99.90;;;;;;5050438;28;20582;-68
2023/06/29 07:25:28;;;;;;;5.05;1.27;;;17.10;99.90;;;;;;5051033;28;20273;-67
2023/06/29 07:27:54;;;;;;;1.38;0.90;;;17.10;99.90;;;;;;5050867;28;20204;-66
2023/06/29 07:30:20;;;;;;;1.90;0.98;;;17.20;99.90;;;;;;5033447;28;20193;-65
2023/06/29 07:32:45;;;;;;;5.70;0.98;;;17.30;99.90;;;;;;5051518;28;20165;-65
2023/06/29 07:35:12;;;;;;;6.18;1.08;;;17.40;99.90;;;;;;5050978;28;20180;-65
2023/06/29 07:37:38;;;;;;;7.93;1.20;;;17.60;99.90;;;;;;5032768;28;20169;-65
2023/06/29 07:40:05;;;;;;;2.53;0.80;;;17.70;99.90;;;;;;5051111;28;20624;-64
2023/06/29 07:42:31;;;;;;;4.32;1.20;;;17.90;99.90;;;;;;5051180;28;20169;-67
2023/06/29 07:44:56;;;;;;;2.45;0.95;;;18.20;99.90;;;;;;5050696;28;20181;-63
2023/06/29 07:47:22;;;;;;;4.32;0.90;;;18.30;99.90;;;;;;5051020;28;20174;-64
2023/06/29 07:49:48;;;;;;;4.15;0.90;;;;;;;;;;5050837;28;20248;-65
2023/06/29 07:52:14;;;;;;;4.38;0.90;;;18.20;99.90;;;;;;5049382;28;20173;-65
2023/06/29 07:54:40;;;;;;;3.85;0.88;;;18.20;99.90;;;;;;5049586;28;20176;-64
2023/06/29 07:57:05;;;;;;;2.22;0.80;;;18.30;99.90;;;;;;5049744;28;20205;-65
2023/06/29 07:59:31;;;;;;;2.80;0.70;;;18.10;99.90;;;;;;5050594;28;20669;-66
2023/06/29 08:01:57;;;;;;;4.00;1.00;;;18.20;99.90;;;;;;5050915;28;20188;-66
2023/06/29 08:04:22;;;;;;;3.03;1.00;;;18.30;99.90;;;;;;5050520;28;20173;-66
2023/06/29 08:06:48;;;;;;;2.80;0.80;;;18.20;99.90;;;;;;5050692;28;20590;-65
2023/06/29 08:09:15;;;;;;;9.02;1.20;;;18.20;99.90;;;;;;5050191;28;20263;-65
2023/06/29 08:11:41;;;;;;;3.63;0.85;;;18.20;99.90;;;;;;5049957;28;20177;-68
2023/06/29 08:14:06;;;;;;;5.47;0.90;;;18.20;99.90;;;;;;5049778;28;20648;-65
2023/06/29 08:16:32;;;;;;;5.40;1.00;;;18.30;99.90;;;;;;5050173;28;20189;-65
2023/06/29 08:18:59;;;;;;;3.55;0.70;;;18.50;99.90;;;;;;5048507;28;20180;-65
2023/06/29 08:21:24;;;;;;;4.10;0.80;;;18.60;99.90;;;;;;5048704;28;20169;-66
2023/06/29 08:23:50;;;;;;;5.00;1.00;;;18.80;99.90;;;;;;5048691;28;20196;-66
2023/06/29 08:26:17;;;;;;;3.70;0.77;;;18.90;99.90;;;;;;5048853;28;20207;-66
2023/06/29 08:28:43;;;;;;;3.28;0.93;;;18.90;99.90;;;;;;5048443;28;20228;-66
2023/06/29 08:31:09;;;;;;;6.15;0.90;;;19.20;99.90;;;;;;5048379;28;20501;-66
2023/06/29 08:33:34;;;;;;;1.27;0.70;;;19.20;99.90;;;;;;5048779;28;20169;-67
2023/06/29 08:36:00;;;;;;;6.30;1.00;;;;;;;;;;5049347;28;20264;-66
2023/06/29 08:38:26;;;;;;;5.90;0.70;;;19.40;99.90;;;;;;5050234;28;20179;-66
2023/06/29 08:40:52;;;;;;;4.93;0.80;;;19.60;7.40;;;;;;5050524;28;20170;-66
2023/06/29 08:43:21;;;;;;;1.83;0.90;;;19.30;1.00;;;;;;5050328;28;20185;-66
2023/06/29 08:45:47;;;;;;;2.83;0.90;;;19.30;99.90;;;;;;5050541;28;20180;-66
2023/06/29 08:48:13;;;;;;;1.60;0.80;;;19.30;1.00;;;;;;5050379;28;20554;-66
2023/06/29 08:50:54;;;;;;;1.77;0.90;;;19.30;1.00;;;;;;5050377;28;20181;-66
2023/06/29 08:53:20;;;;;;;4.90;0.80;;;19.40;1.00;;;;;;5032361;28;20165;-65
2023/06/29 08:55:48;;;;;;;3.53;0.80;;;19.70;1.00;;;;;;5050384;28;20180;-65
2023/06/29 08:58:14;;;;;;;3.58;0.77;;;19.60;99.90;;;;;;5050325;28;20199;-68
2023/06/29 09:00:40;;;;;;;1.20;0.73;;;19.50;1.00;;;;;;5050305;28;20255;-67
2023/06/29 09:03:07;;;;;;;3.38;0.90;;;19.50;1.00;;;;;;5050276;28;20169;-64
2023/06/29 09:05:36;;;;;;;2.25;1.00;;;19.60;1.00;;;;;;5050278;28;20165;-65
2023/06/29 09:08:02;;;;;;;2.97;0.80;;;19.70;99.90;;;;;;5050296;28;20671;-65
2023/06/29 09:10:28;;;;;;;2.30;0.80;;;19.60;99.90;;;;;;5053890;28;20179;-65
2023/06/29 09:12:54;;;;;;;4.22;1.05;;;19.60;1.00;;;;;;5036121;28;20260;-65
2023/06/29 09:15:25;;;;;;;1.13;0.68;;;19.90;1.00;;;;;;5053874;28;20177;-66
2023/06/29 09:17:54;;;;;;;1.73;0.80;;;20.40;1.00;;;;;;5053835;28;20199;-66
2023/06/29 09:20:21;;;;;;;2.72;0.80;;;20.50;99.90;;;;;;5053768;28;20195;-67
2023/06/29 09:22:52;;;;;;;4.40;1.00;;;20.60;47.90;;;;;;5053861;28;20181;-66
2023/06/29 09:25:18;;;;;;;1.67;0.73;;;20.40;99.90;;;;;;5053720;28;20185;-66
2023/06/29 09:27:44;;;;;;;9.55;2.17;;;20.30;1.00;;;;;;5053540;28;20698;-66
2023/06/29 09:30:21;;;;;;;6.57;1.25;;;20.80;99.90;;;;;;5051620;28;20221;-66
2023/06/29 09:32:46;;;;;;;2.28;0.80;;;20.70;1.00;;;;;;5044638;28;20177;-66
2023/06/29 09:35:12;;;;;;;2.20;0.63;;;20.40;1.00;;;;;;5033523;28;20181;-68
2023/06/29 09:37:40;;;;;;;2.20;0.70;;;;;;;;;;5046589;28;20176;-67
2023/06/29 09:40:11;;;;;;;3.95;0.93;;;20.40;1.00;;;;;;5053321;28;20173;-66
2023/06/29 09:42:38;;;;;;;1.73;0.70;;;20.70;1.00;;;;;;5053348;28;20626;-66
2023/06/29 09:45:11;;;;;;;4.72;1.00;;;20.60;11.20;;;;;;5053579;28;20181;-65
2023/06/29 09:47:38;;;;;;;1.70;0.80;;;21.00;1.00;;;;;;5053334;28;20165;-66
2023/06/29 09:50:19;;;;;;;3.05;1.10;;;20.90;1.00;;;;;;5053482;28;20189;-66
2023/06/29 09:52:50;;;;;;;2.97;0.90;;;21.30;1.00;;;;;;5053318;28;20200;-66
2023/06/29 09:55:17;;;;;;;11.77;1.25;;;21.70;99.90;;;;;;5053178;28;20185;-66
2023/06/29 09:57:45;;;;;;;5.18;0.80;;;21.50;99.90;;;;;;5053212;28;20165;-66
2023/06/29 10:00:12;;;;;;;4.85;0.90;;;21.50;99.90;;;;;;5053111;28;20174;-66
2023/06/29 10:02:42;;;;;;;1.13;0.80;;;;;;;;;;5053029;28;20184;-66
2023/06/29 10:05:08;;;;;;;0.77;0.65;;;21.90;1.00;;;;;;5035875;28;20782;-66
2023/06/29 10:07:36;;;;;;;3.22;0.68;;;22.20;99.90;;;;;;5052989;28;20166;-66
2023/06/29 10:10:02;;;;;;;4.10;1.10;;;22.50;34.50;;;;;;5053102;28;20262;-66
2023/06/29 10:12:28;;;;;;;4.60;0.65;;;22.60;1.00;;;;;;5053089;28;20172;-66
2023/06/29 10:14:58;;;;;;;3.50;1.10;;;22.40;99.90;;;;;;5035106;28;20200;-65
2023/06/29 10:17:35;;;;;;;9.60;0.90;;;22.50;1.00;;;;;;5052934;28;20169;-65
2023/06/29 10:20:03;;;;;;;2.92;0.90;;;22.40;99.90;;;;;;5051969;28;20173;-66
2023/06/29 10:22:30;;;;;;;4.13;0.88;;;22.00;99.90;;;;;;5052684;28;20686;-66
2023/06/29 10:25:00;;;;;;;4.78;1.00;;;21.90;99.90;;;;;;5052860;28;20256;-66
2023/06/29 10:27:29;;;;;;;5.60;1.00;;;22.10;1.00;;;;;;5052640;28;20180;-66
2023/06/29 10:29:55;;;;;;;3.65;1.10;;;22.40;1.00;;;;;;5052265;28;20229;-66
2023/06/29 10:32:38;;;;;;;2.85;0.80;;;23.10;1.00;;;;;;5052443;28;20169;-66
2023/06/29 10:35:05;;;;;;;1.90;0.80;;;;;;;;;;5052433;28;20189;-66
2023/06/29 10:37:32;;;;;;;3.40;1.08;;;23.10;1.00;;;;;;5052402;28;20667;-67
2023/06/29 10:39:58;;;;;;;2.92;0.90;;;;;;;;;;5052296;28;20169;-66
2023/06/29 10:42:24;;;;;;;2.15;0.90;;;;;;;;;;5052395;28;20180;-66
2023/06/29 10:44:50;;;;;;;3.63;0.95;;;22.80;1.00;;;;;;5052342;28;20576;-67
2023/06/29 10:47:25;;;;;;;4.38;0.90;;;23.20;1.00;;;;;;5052092;28;20173;-66
2023/06/29 10:50:13;;;;;;;3.20;0.90;;;22.80;99.90;;;;;;5052036;28;20615;-66
2023/06/29 10:52:40;;;;;;;1.98;0.80;;;;;;;;;;5052013;28;20177;-66
2023/06/29 10:55:19;;;;;;;3.22;0.90;;;22.80;99.90;;;;;;5052131;28;20196;-66
2023/06/29 10:57:46;;;;;;;2.25;0.70;;;23.00;99.90;;;;;;5034127;28;20207;-66
2023/06/29 11:00:13;;;;;;;1.52;0.68;;;22.80;1.00;;;;;;5051926;28;20695;-66
2023/06/29 11:02:40;;;;;;;3.17;0.70;;;22.50;99.90;;;;;;5052128;28;20174;-66
2023/06/29 11:05:06;;;;;;;5.40;0.73;;;23.00;45.70;;;;;;5051914;28;20184;-66
2023/06/29 11:07:33;;;;;;;4.00;0.80;;;23.50;1.00;;;;;;5051400;28;20164;-64
2023/06/29 11:10:02;;;;;;;4.70;0.73;;;23.20;99.90;;;;;;5051465;28;20219;-65
2023/06/29 11:12:28;;;;;;;3.88;0.90;;;24.70;1.00;;;;;;5050174;28;20311;-65
2023/06/29 11:14:57;;;;;;;3.65;1.00;;;24.80;1.00;;;;;;5050875;28;20834;-66
2023/06/29 11:17:23;;;;;;;4.90;0.95;;;25.10;1.00;;;;;;5032702;28;20637;-66
2023/06/29 11:19:49;;;;;;;3.20;0.95;;;25.20;99.90;;;;;;5050863;28;20173;-65
2023/06/29 11:22:19;;;;;;;2.65;0.88;;;25.40;1.00;;;;;;5051280;28;20177;-65
2023/06/29 11:24:45;;;;;;;1.70;0.85;;;;;;;;;;5051676;28;20247;-66
2023/06/29 11:27:11;;;;;;;2.85;0.80;;;;;;;;;;5051304;28;20169;-66
2023/06/29 11:29:38;;;;;;;4.28;1.05;;;;;;;;;;5050650;28;20232;-67
2023/06/29 11:32:15;;;;;;;7.50;1.30;;;24.90;1.00;;;;;;5051007;28;20201;-66
2023/06/29 11:34:41;;;;;;;2.20;0.90;;;;;;;;;;5051011;28;20168;-66
2023/06/29 11:37:09;;;;;;;2.00;0.80;;;23.90;99.90;;;;;;5051006;28;20536;-66
2023/06/29 11:39:35;;;;;;;2.80;0.80;;;;;;;;;;5033053;28;20843;-65
2023/06/29 11:42:07;;;;;;;3.85;0.88;;;23.90;53.80;;;;;;5045734;28;20280;-67
2023/06/29 11:44:33;;;;;;;0.80;0.70;;;23.90;99.90;;;;;;5031475;28;20170;-66
2023/06/29 11:46:59;;;;;;;4.30;0.82;;;;;;;;;;5031136;28;20691;-65
2023/06/29 11:49:25;;;;;;;8.07;1.10;;;23.20;99.90;;;;;;5031012;28;20256;-65
2023/06/29 11:51:51;;;;;;;2.00;0.80;;;;;;;;;;5030007;28;20173;-66
2023/06/29 11:54:17;;;;;;;2.65;0.90;;;23.30;55.60;;;;;;5029818;28;20169;-65
2023/06/29 11:56:43;;;;;;;1.58;0.85;;;22.90;25.40;;;;;;5030212;28;20179;-65
2023/06/29 11:59:15;;;;;;;4.75;0.93;;;25.00;1.00;;;;;;5030098;28;20169;-66
2023/06/29 12:01:43;;;;;;;1.70;0.80;;;22.80;1.00;;;;;;5012266;28;20588;-67
2023/06/29 12:04:09;;;;;;;2.47;0.80;;;22.40;24.00;;;;;;5030102;28;20223;-66
2023/06/29 12:06:36;;;;;;;2.17;0.70;;;22.10;71.10;;;;;;5030385;28;20234;-66
2023/06/29 12:09:11;;;;;;;3.08;0.90;;;21.80;1.00;;;;;;5030902;28;20643;-64
2023/06/29 12:11:36;;;;;;;3.65;0.77;;;21.90;1.00;;;;;;5031027;28;20654;-66
2023/06/29 12:14:09;;;;;;;3.50;0.80;;;21.70;1.00;;;;;;5030796;28;20189;-65
2023/06/29 12:16:41;;;;;;;2.40;0.85;;;21.60;1.00;;;;;;5030913;28;20181;-65
2023/06/29 12:19:13;;;;;;;3.22;0.80;;;21.30;99.90;;;;;;5030892;28;20226;-65
2023/06/29 12:21:39;;;;;;;3.20;1.10;;;21.40;1.00;;;;;;5030971;28;20201;-65
2023/06/29 12:24:05;;;;;;;2.45;0.90;;;22.10;1.00;;;;;;5030862;28;20210;-65
2023/06/29 12:26:31;;;;;;;6.68;1.42;;;22.10;21.60;;;;;;5030722;28;20173;-65
2023/06/29 12:28:57;;;;;;;1.77;0.85;;;21.90;11.60;;;;;;5030563;28;20222;-65
2023/06/29 12:31:26;;;;;;;3.08;0.95;;;21.90;1.00;;;;;;5030726;28;20193;-65
2023/06/29 12:33:55;;;;;;;5.32;1.10;;;21.70;1.00;;;;;;5030606;28;20259;-65
2023/06/29 12:36:21;;;;;;;4.47;1.05;;;21.70;99.90;;;;;;5030617;28;20173;-64
2023/06/29 12:38:50;;;;;;;4.60;1.20;;;21.90;1.00;;;;;;5030623;28;20170;-65
2023/06/29 12:41:16;;;;;;;7.78;1.30;;;;;;;;;;5017853;28;20552;-65
2023/06/29 12:43:42;;;;;;;4.43;1.10;;;21.80;99.90;;;;;;5050621;28;20177;-65
2023/06/29 12:46:10;;;;;;;4.35;1.10;;;21.90;1.00;;;;;;5051413;28;20181;-65
2023/06/29 12:48:36;;;;;;;4.22;1.33;;;;;;;;;;5034413;28;20568;-65
2023/06/29 12:51:02;;;;;;;5.80;1.08;;;22.40;99.90;;;;;;5051615;28;20184;-66
2023/06/29 12:53:28;;;;;;;2.28;0.80;;;23.30;1.00;;;;;;5054464;28;20178;-65
2023/06/29 12:55:54;;;;;;;2.70;1.02;;;;;;;;;;5035809;28;20180;-66